sensor_id;sensor_type;location;lat;lon;timestamp;temperature;humidity
52879;DHT22;38747;53.140;6.498;2023-02-01T00:01:31;5.70;99.90
52879;DHT22;38747;53.140;6.498;2023-02-01T00:03:57;5.70;99.90
52879;DHT22;38747;53.140;6.498;2023-02-01T00:06:22;5.70;99.90
52879;DHT22;38747;53.140;6.498;2023-02-01T00:08:48;5.80;99.90
52879;DHT22;38747;53.140;6.498;2023-02-01T00:11:13;5.80;99.90
52879;DHT22;38747;53.140;6.498;2023-02-01T00:13:41;5.70;99.90
52879;DHT22;38747;53.140;6.498;2023-02-01T00:16:15;5.80;99.90
52879;DHT22;38747;53.140;6.498;2023-02-01T00:18:42;5.70;99.90
52879;DHT22;38747;53.140;6.498;2023-02-01T00:21:09;5.70;99.90
52879;DHT22;38747;53.140;6.498;2023-02-01T00:23:35;5.80;99.90
52879;DHT22;38747;53.140;6.498;2023-02-01T00:26:03;5.80;99.90
52879;DHT22;38747;53.140;6.498;2023-02-01T00:28:29;5.80;99.90
52879;DHT22;38747;53.140;6.498;2023-02-01T00:30:59;5.80;99.90
52879;DHT22;38747;53.140;6.498;2023-02-01T00:33:25;5.80;99.90
52879;DHT22;38747;53.140;6.498;2023-02-01T00:35:51;5.90;99.90
52879;DHT22;38747;53.140;6.498;2023-02-01T00:38:17;5.90;99.90
52879;DHT22;38747;53.140;6.498;2023-02-01T00:40:42;5.80;99.90
52879;DHT22;38747;53.140;6.498;2023-02-01T00:43:08;5.80;99.90
52879;DHT22;38747;53.140;6.498;2023-02-01T00:45:33;5.80;99.90
52879;DHT22;38747;53.140;6.498;2023-02-01T00:47:59;5.70;99.90
52879;DHT22;38747;53.140;6.498;2023-02-01T00:50:24;5.80;99.90
52879;DHT22;38747;53.140;6.498;2023-02-01T00:52:50;5.80;99.90
52879;DHT22;38747;53.140;6.498;2023-02-01T00:55:16;5.70;99.90
52879;DHT22;38747;53.140;6.498;2023-02-01T00:57:41;5.80;99.90
52879;DHT22;38747;53.140;6.498;2023-02-01T01:00:07;5.80;99.90
52879;DHT22;38747;53.140;6.498;2023-02-01T01:02:33;5.70;99.90
52879;DHT22;38747;53.140;6.498;2023-02-01T01:04:59;5.70;99.90
52879;DHT22;38747;53.140;6.498;2023-02-01T01:07:24;5.80;99.90
52879;DHT22;38747;53.140;6.498;2023-02-01T01:09:50;5.70;99.90
52879;DHT22;38747;53.140;6.498;2023-02-01T01:12:16;5.80;99.90
52879;DHT22;38747;53.140;6.498;2023-02-01T01:14:41;5.80;99.90
52879;DHT22;38747;53.140;6.498;2023-02-01T01:17:07;5.80;99.90
52879;DHT22;38747;53.140;6.498;2023-02-01T01:19:32;5.80;99.90
52879;DHT22;38747;53.140;6.498;2023-02-01T01:21:58;5.90;99.90
52879;DHT22;38747;53.140;6.498;2023-02-01T01:24:23;5.80;99.90
52879;DHT22;38747;53.140;6.498;2023-02-01T01:26:49;5.80;99.90
52879;DHT22;38747;53.140;6.498;2023-02-01T01:29:15;5.80;99.90
52879;DHT22;38747;53.140;6.498;2023-02-01T01:31:40;5.80;99.90
52879;DHT22;38747;53.140;6.498;2023-02-01T01:34:06;5.80;99.90
52879;DHT22;38747;53.140;6.498;2023-02-01T01:36:31;5.90;99.90
52879;DHT22;38747;53.140;6.498;2023-02-01T01:38:57;5.90;99.90
52879;DHT22;38747;53.140;6.498;2023-02-01T01:41:25;5.90;99.90
52879;DHT22;38747;53.140;6.498;2023-02-01T01:43:56;5.90;99.90
52879;DHT22;38747;53.140;6.498;2023-02-01T01:46:24;5.90;99.90
52879;DHT22;38747;53.140;6.498;2023-02-01T01:51:23;5.90;99.90
52879;DHT22;38747;53.140;6.498;2023-02-01T01:54:02;5.90;99.90
52879;DHT22;38747;53.140;6.498;2023-02-01T01:56:29;5.90;99.90
52879;DHT22;38747;53.140;6.498;2023-02-01T01:58:56;5.90;99.90
52879;DHT22;38747;53.140;6.498;2023-02-01T02:01:22;5.80;99.90
52879;DHT22;38747;53.140;6.498;2023-02-01T02:03:48;5.80;99.90
52879;DHT22;38747;53.140;6.498;2023-02-01T02:06:42;5.80;99.90
52879;DHT22;38747;53.140;6.498;2023-02-01T02:09:11;5.80;99.90
52879;DHT22;38747;53.140;6.498;2023-02-01T02:11:36;5.70;99.90
52879;DHT22;38747;53.140;6.498;2023-02-01T02:14:03;5.80;99.90
52879;DHT22;38747;53.140;6.498;2023-02-01T02:25:33;5.60;99.90
52879;DHT22;38747;53.140;6.498;2023-02-01T02:31:04;5.60;99.90
52879;DHT22;38747;53.140;6.498;2023-02-01T02:36:30;5.50;99.90
52879;DHT22;38747;53.140;6.498;2023-02-01T02:39:07;5.50;99.90
52879;DHT22;38747;53.140;6.498;2023-02-01T02:45:01;5.50;99.90
52879;DHT22;38747;53.140;6.498;2023-02-01T02:50:41;5.50;99.90
52879;DHT22;38747;53.140;6.498;2023-02-01T02:56:32;5.60;99.90
52879;DHT22;38747;53.140;6.498;2023-02-01T02:59:20;5.60;99.90
52879;DHT22;38747;53.140;6.498;2023-02-01T03:02:06;5.60;99.90
52879;DHT22;38747;53.140;6.498;2023-02-01T03:04:54;5.70;99.90
52879;DHT22;38747;53.140;6.498;2023-02-01T03:13:08;5.80;99.90
52879;DHT22;38747;53.140;6.498;2023-02-01T03:15:39;5.80;99.90
52879;DHT22;38747;53.140;6.498;2023-02-01T03:18:30;5.80;99.90
52879;DHT22;38747;53.140;6.498;2023-02-01T03:21:00;5.80;99.90
52879;DHT22;38747;53.140;6.498;2023-02-01T03:23:31;5.80;99.90
52879;DHT22;38747;53.140;6.498;2023-02-01T03:26:01;5.90;99.90
52879;DHT22;38747;53.140;6.498;2023-02-01T03:28:29;5.90;99.90
52879;DHT22;38747;53.140;6.498;2023-02-01T03:30:56;5.90;99.90
52879;DHT22;38747;53.140;6.498;2023-02-01T03:33:24;5.90;99.90
52879;DHT22;38747;53.140;6.498;2023-02-01T03:36:17;6.00;99.90
52879;DHT22;38747;53.140;6.498;2023-02-01T03:39:15;5.90;99.90
52879;DHT22;38747;53.140;6.498;2023-02-01T03:41:45;5.90;99.90
52879;DHT22;38747;53.140;6.498;2023-02-01T03:44:18;6.00;99.90
52879;DHT22;38747;53.140;6.498;2023-02-01T03:46:49;6.00;99.90
52879;DHT22;38747;53.140;6.498;2023-02-01T03:49:22;6.00;99.90
52879;DHT22;38747;53.140;6.498;2023-02-01T03:51:51;5.90;99.90
52879;DHT22;38747;53.140;6.498;2023-02-01T03:54:17;5.90;99.90
52879;DHT22;38747;53.140;6.498;2023-02-01T03:56:46;6.00;99.90
52879;DHT22;38747;53.140;6.498;2023-02-01T03:59:13;6.00;99.90
52879;DHT22;38747;53.140;6.498;2023-02-01T04:01:39;5.90;99.90
52879;DHT22;38747;53.140;6.498;2023-02-01T04:04:06;6.00;99.90
52879;DHT22;38747;53.140;6.498;2023-02-01T04:06:32;6.00;99.90
52879;DHT22;38747;53.140;6.498;2023-02-01T04:08:57;5.90;99.90
52879;DHT22;38747;53.140;6.498;2023-02-01T04:11:23;6.00;99.90
52879;DHT22;38747;53.140;6.498;2023-02-01T04:13:49;5.90;99.90
52879;DHT22;38747;53.140;6.498;2023-02-01T04:16:14;5.90;99.90
52879;DHT22;38747;53.140;6.498;2023-02-01T04:18:40;5.90;99.90
52879;DHT22;38747;53.140;6.498;2023-02-01T04:21:05;5.90;99.90
52879;DHT22;38747;53.140;6.498;2023-02-01T04:23:31;6.00;99.90
52879;DHT22;38747;53.140;6.498;2023-02-01T04:26:01;6.00;99.90
52879;DHT22;38747;53.140;6.498;2023-02-01T04:28:28;6.00;99.90
52879;DHT22;38747;53.140;6.498;2023-02-01T04:30:54;6.00;99.90
52879;DHT22;38747;53.140;6.498;2023-02-01T04:33:19;6.00;99.90
52879;DHT22;38747;53.140;6.498;2023-02-01T04:35:45;6.00;99.90
52879;DHT22;38747;53.140;6.498;2023-02-01T04:38:10;6.00;99.90
52879;DHT22;38747;53.140;6.498;2023-02-01T04:40:36;5.90;99.90
52879;DHT22;38747;53.140;6.498;2023-02-01T04:43:03;5.90;99.90
52879;DHT22;38747;53.140;6.498;2023-02-01T04:45:29;5.90;99.90
52879;DHT22;38747;53.140;6.498;2023-02-01T04:47:55;5.90;99.90
52879;DHT22;38747;53.140;6.498;2023-02-01T04:50:21;5.90;99.90
52879;DHT22;38747;53.140;6.498;2023-02-01T04:52:47;5.90;99.90
52879;DHT22;38747;53.140;6.498;2023-02-01T04:55:12;5.90;99.90
52879;DHT22;38747;53.140;6.498;2023-02-01T04:57:39;5.90;99.90
52879;DHT22;38747;53.140;6.498;2023-02-01T05:00:08;5.90;99.90
52879;DHT22;38747;53.140;6.498;2023-02-01T05:02:34;5.90;99.90
52879;DHT22;38747;53.140;6.498;2023-02-01T05:05:00;5.90;99.90
52879;DHT22;38747;53.140;6.498;2023-02-01T05:07:26;5.90;99.90
52879;DHT22;38747;53.140;6.498;2023-02-01T05:09:51;5.90;99.90
52879;DHT22;38747;53.140;6.498;2023-02-01T05:12:17;5.90;99.90
52879;DHT22;38747;53.140;6.498;2023-02-01T05:15:01;5.80;99.90
52879;DHT22;38747;53.140;6.498;2023-02-01T05:17:27;5.80;99.90
52879;DHT22;38747;53.140;6.498;2023-02-01T05:19:52;5.70;99.90
52879;DHT22;38747;53.140;6.498;2023-02-01T05:22:18;5.80;99.90
52879;DHT22;38747;53.140;6.498;2023-02-01T05:24:44;5.80;99.90
52879;DHT22;38747;53.140;6.498;2023-02-01T05:27:10;5.80;99.90
52879;DHT22;38747;53.140;6.498;2023-02-01T05:29:36;5.90;99.90
52879;DHT22;38747;53.140;6.498;2023-02-01T05:32:01;5.90;99.90
52879;DHT22;38747;53.140;6.498;2023-02-01T05:34:27;5.90;99.90
52879;DHT22;38747;53.140;6.498;2023-02-01T05:36:53;5.90;99.90
52879;DHT22;38747;53.140;6.498;2023-02-01T05:39:18;5.90;99.90
52879;DHT22;38747;53.140;6.498;2023-02-01T05:41:44;6.00;99.90
52879;DHT22;38747;53.140;6.498;2023-02-01T05:44:11;6.00;99.90
52879;DHT22;38747;53.140;6.498;2023-02-01T05:46:36;6.00;99.90
52879;DHT22;38747;53.140;6.498;2023-02-01T05:49:03;6.00;99.90
52879;DHT22;38747;53.140;6.498;2023-02-01T05:51:29;6.00;99.90
52879;DHT22;38747;53.140;6.498;2023-02-01T05:53:54;6.10;99.90
52879;DHT22;38747;53.140;6.498;2023-02-01T05:56:20;6.10;99.90
52879;DHT22;38747;53.140;6.498;2023-02-01T05:58:48;6.10;99.90
52879;DHT22;38747;53.140;6.498;2023-02-01T06:01:13;6.20;99.90
52879;DHT22;38747;53.140;6.498;2023-02-01T06:03:39;6.20;99.90
52879;DHT22;38747;53.140;6.498;2023-02-01T06:06:05;6.10;99.90
52879;DHT22;38747;53.140;6.498;2023-02-01T06:08:31;6.10;99.90
52879;DHT22;38747;53.140;6.498;2023-02-01T06:10:58;6.10;99.90
52879;DHT22;38747;53.140;6.498;2023-02-01T06:13:24;6.10;99.90
52879;DHT22;38747;53.140;6.498;2023-02-01T06:15:50;6.00;99.90
52879;DHT22;38747;53.140;6.498;2023-02-01T06:18:15;6.10;99.90
52879;DHT22;38747;53.140;6.498;2023-02-01T06:20:41;6.10;99.90
52879;DHT22;38747;53.140;6.498;2023-02-01T06:23:07;6.00;99.90
52879;DHT22;38747;53.140;6.498;2023-02-01T06:25:32;6.00;99.90
52879;DHT22;38747;53.140;6.498;2023-02-01T06:28:00;5.90;99.90
52879;DHT22;38747;53.140;6.498;2023-02-01T06:30:26;5.80;99.90
52879;DHT22;38747;53.140;6.498;2023-02-01T06:32:52;5.80;99.90
52879;DHT22;38747;53.140;6.498;2023-02-01T06:35:21;5.70;99.90
52879;DHT22;38747;53.140;6.498;2023-02-01T06:37:46;5.70;99.90
52879;DHT22;38747;53.140;6.498;2023-02-01T06:40:12;5.70;99.90
52879;DHT22;38747;53.140;6.498;2023-02-01T06:42:38;5.80;99.90
52879;DHT22;38747;53.140;6.498;2023-02-01T06:45:04;5.80;99.90
52879;DHT22;38747;53.140;6.498;2023-02-01T06:47:31;5.80;99.90
52879;DHT22;38747;53.140;6.498;2023-02-01T06:49:57;5.80;99.90
52879;DHT22;38747;53.140;6.498;2023-02-01T06:52:23;5.90;99.90
52879;DHT22;38747;53.140;6.498;2023-02-01T06:54:48;5.80;99.90
52879;DHT22;38747;53.140;6.498;2023-02-01T06:57:14;5.90;99.90
52879;DHT22;38747;53.140;6.498;2023-02-01T06:59:39;5.90;99.90
52879;DHT22;38747;53.140;6.498;2023-02-01T07:02:05;5.90;99.90
52879;DHT22;38747;53.140;6.498;2023-02-01T07:04:31;5.90;99.90
52879;DHT22;38747;53.140;6.498;2023-02-01T07:06:56;5.90;99.90
52879;DHT22;38747;53.140;6.498;2023-02-01T07:09:22;6.00;99.90
52879;DHT22;38747;53.140;6.498;2023-02-01T07:11:48;6.00;99.90
52879;DHT22;38747;53.140;6.498;2023-02-01T07:14:13;6.00;99.90
52879;DHT22;38747;53.140;6.498;2023-02-01T07:16:39;6.00;99.90
52879;DHT22;38747;53.140;6.498;2023-02-01T07:19:05;6.00;99.90
52879;DHT22;38747;53.140;6.498;2023-02-01T07:21:30;6.00;99.90
52879;DHT22;38747;53.140;6.498;2023-02-01T07:23:56;6.00;99.90
52879;DHT22;38747;53.140;6.498;2023-02-01T07:26:23;6.00;99.90
52879;DHT22;38747;53.140;6.498;2023-02-01T07:28:48;6.00;99.90
52879;DHT22;38747;53.140;6.498;2023-02-01T07:31:19;6.00;99.90
52879;DHT22;38747;53.140;6.498;2023-02-01T07:33:49;6.00;99.90
52879;DHT22;38747;53.140;6.498;2023-02-01T07:36:18;6.00;99.90
52879;DHT22;38747;53.140;6.498;2023-02-01T07:38:45;6.00;99.90
52879;DHT22;38747;53.140;6.498;2023-02-01T07:41:12;6.00;99.90
52879;DHT22;38747;53.140;6.498;2023-02-01T07:43:38;6.00;99.90
52879;DHT22;38747;53.140;6.498;2023-02-01T07:46:04;6.00;99.90
52879;DHT22;38747;53.140;6.498;2023-02-01T07:48:31;6.00;99.90
52879;DHT22;38747;53.140;6.498;2023-02-01T07:51:02;6.00;99.90
52879;DHT22;38747;53.140;6.498;2023-02-01T07:53:30;6.00;99.90
52879;DHT22;38747;53.140;6.498;2023-02-01T07:55:56;6.00;99.90
52879;DHT22;38747;53.140;6.498;2023-02-01T07:58:23;6.00;99.90
52879;DHT22;38747;53.140;6.498;2023-02-01T08:00:49;6.00;99.90
52879;DHT22;38747;53.140;6.498;2023-02-01T08:03:33;6.10;99.90
52879;DHT22;38747;53.140;6.498;2023-02-01T08:05:58;6.00;99.90
52879;DHT22;38747;53.140;6.498;2023-02-01T08:08:24;6.00;99.90
52879;DHT22;38747;53.140;6.498;2023-02-01T08:10:50;6.00;99.90
52879;DHT22;38747;53.140;6.498;2023-02-01T08:13:16;6.10;99.90
52879;DHT22;38747;53.140;6.498;2023-02-01T08:15:42;6.10;99.90
52879;DHT22;38747;53.140;6.498;2023-02-01T08:18:07;6.00;99.90
52879;DHT22;38747;53.140;6.498;2023-02-01T08:20:35;6.00;99.90
52879;DHT22;38747;53.140;6.498;2023-02-01T08:23:01;6.00;99.90
52879;DHT22;38747;53.140;6.498;2023-02-01T08:25:27;6.10;99.90
52879;DHT22;38747;53.140;6.498;2023-02-01T08:27:53;6.10;99.90
52879;DHT22;38747;53.140;6.498;2023-02-01T08:30:20;6.10;99.90
52879;DHT22;38747;53.140;6.498;2023-02-01T08:32:47;6.20;99.90
52879;DHT22;38747;53.140;6.498;2023-02-01T08:35:13;6.20;99.90
52879;DHT22;38747;53.140;6.498;2023-02-01T08:37:39;6.20;99.90
52879;DHT22;38747;53.140;6.498;2023-02-01T08:40:05;6.20;99.90
52879;DHT22;38747;53.140;6.498;2023-02-01T08:42:31;6.20;99.90
52879;DHT22;38747;53.140;6.498;2023-02-01T08:45:16;6.20;99.90
52879;DHT22;38747;53.140;6.498;2023-02-01T08:47:42;6.30;99.90
52879;DHT22;38747;53.140;6.498;2023-02-01T08:50:08;6.20;99.90
52879;DHT22;38747;53.140;6.498;2023-02-01T08:52:34;6.30;99.90
52879;DHT22;38747;53.140;6.498;2023-02-01T08:55:00;6.20;99.90
52879;DHT22;38747;53.140;6.498;2023-02-01T08:57:26;6.20;99.90
52879;DHT22;38747;53.140;6.498;2023-02-01T08:59:51;6.20;99.90
52879;DHT22;38747;53.140;6.498;2023-02-01T09:02:17;6.20;99.90
52879;DHT22;38747;53.140;6.498;2023-02-01T09:04:43;6.30;99.90
52879;DHT22;38747;53.140;6.498;2023-02-01T09:07:10;6.20;99.90
52879;DHT22;38747;53.140;6.498;2023-02-01T09:09:37;6.30;99.90
52879;DHT22;38747;53.140;6.498;2023-02-01T09:12:04;6.30;99.90
52879;DHT22;38747;53.140;6.498;2023-02-01T09:14:30;6.20;99.90
52879;DHT22;38747;53.140;6.498;2023-02-01T09:16:55;6.20;99.90
52879;DHT22;38747;53.140;6.498;2023-02-01T09:19:23;6.30;99.90
52879;DHT22;38747;53.140;6.498;2023-02-01T09:21:49;6.30;99.90
52879;DHT22;38747;53.140;6.498;2023-02-01T09:24:14;6.30;99.90
52879;DHT22;38747;53.140;6.498;2023-02-01T09:26:40;6.30;99.90
52879;DHT22;38747;53.140;6.498;2023-02-01T09:29:06;6.30;99.90
52879;DHT22;38747;53.140;6.498;2023-02-01T09:31:38;6.30;99.90
52879;DHT22;38747;53.140;6.498;2023-02-01T09:34:05;6.30;99.90
52879;DHT22;38747;53.140;6.498;2023-02-01T09:36:30;6.40;99.90
52879;DHT22;38747;53.140;6.498;2023-02-01T09:38:56;6.40;99.90
52879;DHT22;38747;53.140;6.498;2023-02-01T09:41:32;6.40;99.90
52879;DHT22;38747;53.140;6.498;2023-02-01T09:46:32;6.40;99.90
52879;DHT22;38747;53.140;6.498;2023-02-01T09:49:08;6.40;99.90
52879;DHT22;38747;53.140;6.498;2023-02-01T09:51:43;6.30;99.90
52879;DHT22;38747;53.140;6.498;2023-02-01T09:54:16;6.30;99.90
52879;DHT22;38747;53.140;6.498;2023-02-01T09:59:42;6.20;99.90
52879;DHT22;38747;53.140;6.498;2023-02-01T10:02:23;6.20;99.90
52879;DHT22;38747;53.140;6.498;2023-02-01T10:04:49;6.20;99.90
52879;DHT22;38747;53.140;6.498;2023-02-01T10:10:29;6.10;99.90
52879;DHT22;38747;53.140;6.498;2023-02-01T10:27:13;6.10;99.90
52879;DHT22;38747;53.140;6.498;2023-02-01T10:29:45;6.20;99.90
52879;DHT22;38747;53.140;6.498;2023-02-01T10:32:17;6.20;99.90
52879;DHT22;38747;53.140;6.498;2023-02-01T10:34:49;6.30;99.90
52879;DHT22;38747;53.140;6.498;2023-02-01T10:39:59;6.40;99.90
52879;DHT22;38747;53.140;6.498;2023-02-01T10:42:27;6.40;99.90
52879;DHT22;38747;53.140;6.498;2023-02-01T10:44:56;6.50;99.90
52879;DHT22;38747;53.140;6.498;2023-02-01T10:47:23;6.60;99.90
52879;DHT22;38747;53.140;6.498;2023-02-01T10:49:58;6.70;99.90
52879;DHT22;38747;53.140;6.498;2023-02-01T10:54:55;6.70;99.90
52879;DHT22;38747;53.140;6.498;2023-02-01T10:57:26;6.70;99.90
52879;DHT22;38747;53.140;6.498;2023-02-01T10:59:53;6.70;99.90
52879;DHT22;38747;53.140;6.498;2023-02-01T11:02:25;6.60;99.90
52879;DHT22;38747;53.140;6.498;2023-02-01T11:05:08;6.60;99.90
52879;DHT22;38747;53.140;6.498;2023-02-01T11:07:36;6.50;99.90
52879;DHT22;38747;53.140;6.498;2023-02-01T11:10:02;6.50;99.90
52879;DHT22;38747;53.140;6.498;2023-02-01T11:12:34;6.60;99.90
52879;DHT22;38747;53.140;6.498;2023-02-01T11:17:46;6.80;99.90
52879;DHT22;38747;53.140;6.498;2023-02-01T11:20:16;6.70;99.90
52879;DHT22;38747;53.140;6.498;2023-02-01T11:22:47;6.70;99.90
52879;DHT22;38747;53.140;6.498;2023-02-01T11:25:15;6.60;99.90
52879;DHT22;38747;53.140;6.498;2023-02-01T11:27:41;6.60;99.90
52879;DHT22;38747;53.140;6.498;2023-02-01T11:30:13;6.50;99.90
52879;DHT22;38747;53.140;6.498;2023-02-01T11:32:40;6.60;99.90
52879;DHT22;38747;53.140;6.498;2023-02-01T11:35:06;6.70;99.90
52879;DHT22;38747;53.140;6.498;2023-02-01T11:37:38;6.80;99.90
52879;DHT22;38747;53.140;6.498;2023-02-01T11:43:13;6.90;99.90
52879;DHT22;38747;53.140;6.498;2023-02-01T11:45:39;6.90;99.90
52879;DHT22;38747;53.140;6.498;2023-02-01T11:48:10;6.90;99.90
52879;DHT22;38747;53.140;6.498;2023-02-01T12:01:37;7.00;99.90
52879;DHT22;38747;53.140;6.498;2023-02-01T12:07:05;7.10;99.90
52879;DHT22;38747;53.140;6.498;2023-02-01T12:12:59;7.30;99.90
52879;DHT22;38747;53.140;6.498;2023-02-01T12:18:41;7.40;99.90
52879;DHT22;38747;53.140;6.498;2023-02-01T12:21:38;7.50;99.90
52879;DHT22;38747;53.140;6.498;2023-02-01T12:24:23;7.60;99.90
52879;DHT22;38747;53.140;6.498;2023-02-01T12:41:03;7.70;99.90
52879;DHT22;38747;53.140;6.498;2023-02-01T12:46:31;7.60;99.90
52879;DHT22;38747;53.140;6.498;2023-02-01T12:49:11;7.60;99.90
52879;DHT22;38747;53.140;6.498;2023-02-01T12:51:41;7.60;99.90
52879;DHT22;38747;53.140;6.498;2023-02-01T12:57:04;7.70;99.90
52879;DHT22;38747;53.140;6.498;2023-02-01T12:59:38;7.70;99.90
52879;DHT22;38747;53.140;6.498;2023-02-01T13:04:53;7.90;99.90
52879;DHT22;38747;53.140;6.498;2023-02-01T13:07:34;8.00;99.90
52879;DHT22;38747;53.140;6.498;2023-02-01T13:10:38;8.10;99.90
52879;DHT22;38747;53.140;6.498;2023-02-01T13:13:32;8.00;99.90
52879;DHT22;38747;53.140;6.498;2023-02-01T13:19:02;7.90;99.90
52879;DHT22;38747;53.140;6.498;2023-02-01T13:21:33;7.90;99.90
52879;DHT22;38747;53.140;6.498;2023-02-01T13:23:59;7.90;99.90
52879;DHT22;38747;53.140;6.498;2023-02-01T13:26:25;7.80;99.90
52879;DHT22;38747;53.140;6.498;2023-02-01T13:29:01;7.80;99.90
52879;DHT22;38747;53.140;6.498;2023-02-01T13:31:52;7.70;99.90
52879;DHT22;38747;53.140;6.498;2023-02-01T13:42:30;7.80;99.90
52879;DHT22;38747;53.140;6.498;2023-02-01T13:45:01;7.80;99.90
52879;DHT22;38747;53.140;6.498;2023-02-01T13:47:38;7.80;99.90
52879;DHT22;38747;53.140;6.498;2023-02-01T13:50:29;7.80;99.90
52879;DHT22;38747;53.140;6.498;2023-02-01T13:57:58;7.80;99.90
52879;DHT22;38747;53.140;6.498;2023-02-01T14:00:31;7.70;99.90
52879;DHT22;38747;53.140;6.498;2023-02-01T14:13:40;7.60;99.90
52879;DHT22;38747;53.140;6.498;2023-02-01T14:23:43;7.70;99.90
52879;DHT22;38747;53.140;6.498;2023-02-01T14:26:13;7.70;99.90
52879;DHT22;38747;53.140;6.498;2023-02-01T14:28:43;7.70;99.90
52879;DHT22;38747;53.140;6.498;2023-02-01T14:31:16;7.70;99.90
52879;DHT22;38747;53.140;6.498;2023-02-01T14:33:43;7.70;99.90
52879;DHT22;38747;53.140;6.498;2023-02-01T14:36:13;7.70;99.90
52879;DHT22;38747;53.140;6.498;2023-02-01T14:38:48;7.70;99.90
52879;DHT22;38747;53.140;6.498;2023-02-01T14:41:30;7.70;99.90
52879;DHT22;38747;53.140;6.498;2023-02-01T14:49:34;7.70;99.90
52879;DHT22;38747;53.140;6.498;2023-02-01T14:52:05;7.80;99.90
52879;DHT22;38747;53.140;6.498;2023-02-01T14:54:31;7.80;99.90
52879;DHT22;38747;53.140;6.498;2023-02-01T14:56:57;7.80;99.90
52879;DHT22;38747;53.140;6.498;2023-02-01T14:59:25;7.70;99.90
52879;DHT22;38747;53.140;6.498;2023-02-01T15:01:58;7.70;99.90
52879;DHT22;38747;53.140;6.498;2023-02-01T15:04:26;7.70;99.90
52879;DHT22;38747;53.140;6.498;2023-02-01T15:06:54;7.70;99.90
52879;DHT22;38747;53.140;6.498;2023-02-01T15:09:32;7.70;99.90
52879;DHT22;38747;53.140;6.498;2023-02-01T15:12:16;7.60;99.90
52879;DHT22;38747;53.140;6.498;2023-02-01T15:14:45;7.60;99.90
52879;DHT22;38747;53.140;6.498;2023-02-01T15:17:21;7.60;99.90
52879;DHT22;38747;53.140;6.498;2023-02-01T15:19:58;7.60;99.90
52879;DHT22;38747;53.140;6.498;2023-02-01T15:22:28;7.50;99.90
52879;DHT22;38747;53.140;6.498;2023-02-01T15:24:59;7.50;99.90
52879;DHT22;38747;53.140;6.498;2023-02-01T15:27:26;7.60;99.90
52879;DHT22;38747;53.140;6.498;2023-02-01T15:29:53;7.60;99.90
52879;DHT22;38747;53.140;6.498;2023-02-01T15:32:37;7.50;99.90
52879;DHT22;38747;53.140;6.498;2023-02-01T15:35:30;7.50;99.90
52879;DHT22;38747;53.140;6.498;2023-02-01T15:37:51;7.50;99.90
52879;DHT22;38747;53.140;6.498;2023-02-01T15:40:21;7.40;99.90
52879;DHT22;38747;53.140;6.498;2023-02-01T15:42:55;7.30;99.90
52879;DHT22;38747;53.140;6.498;2023-02-01T15:45:25;7.30;99.90
52879;DHT22;38747;53.140;6.498;2023-02-01T15:47:53;7.20;99.90
52879;DHT22;38747;53.140;6.498;2023-02-01T15:50:20;7.20;99.90
52879;DHT22;38747;53.140;6.498;2023-02-01T15:52:51;7.10;99.90
52879;DHT22;38747;53.140;6.498;2023-02-01T15:55:21;7.10;99.90
52879;DHT22;38747;53.140;6.498;2023-02-01T15:57:50;7.10;99.90
52879;DHT22;38747;53.140;6.498;2023-02-01T16:00:23;7.00;99.90
52879;DHT22;38747;53.140;6.498;2023-02-01T16:02:55;6.90;99.90
52879;DHT22;38747;53.140;6.498;2023-02-01T16:05:36;6.90;99.90
52879;DHT22;38747;53.140;6.498;2023-02-01T16:08:21;6.90;99.90
52879;DHT22;38747;53.140;6.498;2023-02-01T16:10:49;6.90;99.90
52879;DHT22;38747;53.140;6.498;2023-02-01T16:13:17;6.90;99.90
52879;DHT22;38747;53.140;6.498;2023-02-01T16:15:43;6.90;99.90
52879;DHT22;38747;53.140;6.498;2023-02-01T16:18:10;6.80;99.90
52879;DHT22;38747;53.140;6.498;2023-02-01T16:20:38;6.80;99.90
52879;DHT22;38747;53.140;6.498;2023-02-01T16:23:04;6.70;99.90
52879;DHT22;38747;53.140;6.498;2023-02-01T16:25:30;6.70;99.90
52879;DHT22;38747;53.140;6.498;2023-02-01T16:27:56;6.60;99.90
52879;DHT22;38747;53.140;6.498;2023-02-01T16:30:22;6.60;99.90
52879;DHT22;38747;53.140;6.498;2023-02-01T16:32:54;6.50;99.90
52879;DHT22;38747;53.140;6.498;2023-02-01T16:35:28;6.40;99.90
52879;DHT22;38747;53.140;6.498;2023-02-01T16:37:57;6.40;99.90
52879;DHT22;38747;53.140;6.498;2023-02-01T16:40:23;6.40;99.90
52879;DHT22;38747;53.140;6.498;2023-02-01T16:42:51;6.40;99.90
52879;DHT22;38747;53.140;6.498;2023-02-01T16:45:19;6.30;99.90
52879;DHT22;38747;53.140;6.498;2023-02-01T16:47:50;6.30;99.90
52879;DHT22;38747;53.140;6.498;2023-02-01T16:50:26;6.30;99.90
52879;DHT22;38747;53.140;6.498;2023-02-01T16:52:53;6.30;99.90
52879;DHT22;38747;53.140;6.498;2023-02-01T16:55:20;6.40;99.90
52879;DHT22;38747;53.140;6.498;2023-02-01T16:57:47;6.30;99.90
52879;DHT22;38747;53.140;6.498;2023-02-01T17:00:13;6.20;99.90
52879;DHT22;38747;53.140;6.498;2023-02-01T17:02:41;6.20;99.90
52879;DHT22;38747;53.140;6.498;2023-02-01T17:05:08;6.20;99.90
52879;DHT22;38747;53.140;6.498;2023-02-01T17:07:35;6.30;99.90
52879;DHT22;38747;53.140;6.498;2023-02-01T17:10:01;6.30;99.90
52879;DHT22;38747;53.140;6.498;2023-02-01T17:12:30;6.40;99.90
52879;DHT22;38747;53.140;6.498;2023-02-01T17:14:56;6.30;99.90
52879;DHT22;38747;53.140;6.498;2023-02-01T17:17:23;6.30;99.90
52879;DHT22;38747;53.140;6.498;2023-02-01T17:19:51;6.40;99.90
52879;DHT22;38747;53.140;6.498;2023-02-01T17:22:22;6.40;99.90
52879;DHT22;38747;53.140;6.498;2023-02-01T17:24:48;6.30;99.90
52879;DHT22;38747;53.140;6.498;2023-02-01T17:27:15;6.30;99.90
52879;DHT22;38747;53.140;6.498;2023-02-01T17:29:41;6.30;99.90
52879;DHT22;38747;53.140;6.498;2023-02-01T17:32:16;6.30;99.90
52879;DHT22;38747;53.140;6.498;2023-02-01T17:34:42;6.30;99.90
52879;DHT22;38747;53.140;6.498;2023-02-01T17:39:44;6.20;99.90
52879;DHT22;38747;53.140;6.498;2023-02-01T17:42:19;6.20;99.90
52879;DHT22;38747;53.140;6.498;2023-02-01T17:44:44;6.10;99.90
52879;DHT22;38747;53.140;6.498;2023-02-01T17:47:10;6.10;99.90
52879;DHT22;38747;53.140;6.498;2023-02-01T17:49:36;6.10;99.90
52879;DHT22;38747;53.140;6.498;2023-02-01T17:52:04;6.10;99.90
52879;DHT22;38747;53.140;6.498;2023-02-01T17:54:29;6.00;99.90
52879;DHT22;38747;53.140;6.498;2023-02-01T17:56:55;6.00;99.90
52879;DHT22;38747;53.140;6.498;2023-02-01T17:59:25;6.00;99.90
52879;DHT22;38747;53.140;6.498;2023-02-01T18:01:51;6.00;99.90
52879;DHT22;38747;53.140;6.498;2023-02-01T18:04:18;6.00;99.90
52879;DHT22;38747;53.140;6.498;2023-02-01T18:06:45;5.90;99.90
52879;DHT22;38747;53.140;6.498;2023-02-01T18:09:10;5.90;99.90
52879;DHT22;38747;53.140;6.498;2023-02-01T18:11:36;5.90;99.90
52879;DHT22;38747;53.140;6.498;2023-02-01T18:14:02;5.90;99.90
52879;DHT22;38747;53.140;6.498;2023-02-01T18:16:32;6.00;99.90
52879;DHT22;38747;53.140;6.498;2023-02-01T18:18:58;5.90;99.90
52879;DHT22;38747;53.140;6.498;2023-02-01T18:21:32;5.90;99.90
52879;DHT22;38747;53.140;6.498;2023-02-01T18:23:59;6.00;99.90
52879;DHT22;38747;53.140;6.498;2023-02-01T18:26:25;6.00;99.90
52879;DHT22;38747;53.140;6.498;2023-02-01T18:28:51;5.90;99.90